Aeroporto :
LOGIN :

Iscrizione | Disclaimer

   EN    FR    IT 

 










Sommario :    VFR   VFR Marginale   IFR   IFR Intensivo   IFR Molto Intensivo
Visibilità : 
Base nubi : 
>= 8 km
>= 3000ft
5 / 8 km
1000 / 3000 ft
1500m / 5 km
500 / 1000 ft
800 / 1500m
200 / 500 ft
< 800m
< 200 ft
Simboli :   Temporali  Nebbia  Neve Forte  Precipitazioni Forti  Vento > 20 kt
SIGMETs :   Varie  Temporali  Ghiacco  Turbolenza  Onda orograficha  Ceneri Vulcaniche






- Altitudine del aeroporto : 935 ft


EBFS - Florennes

ULTIMO METAR :
  • 170725Z VRB02KT 7000 FEW050 14/12 Q1017 WHT WHT BECMG BLU

METARs OBSOLETI :
  • 170655Z VRB02KT 7000 FEW050 12/11 Q1017 WHT WHT BECMG BLU
  • 170625Z 10003KT 5000 BR FEW250 10/10 Q1017 WHT WHT BECMG BLU
  • 170622Z 10003KT 5000 BR FEW250 10/10 Q1017 WHT WHT BECMG BLU
  • 170555Z 10003KT 4000 BR FEW250 09/09 Q1017 GRN GRN TEMPO YLO
  • 170525Z VRB01KT 4000 BR FEW250 10/09 Q1017 GRN GRN TEMPO YLO
  • 170455Z VRB01KT 4000 BR FEW250 10/10 Q1017 GRN GRN TEMPO YLO
  • 170451Z VRB01KT 4000 BR FEW250 10/09 Q1017 GRN GRN TEMPO YLO

TAF COR TAF EBFS
Valido dal 17 a 07 ore il 17 a 16 ore UTC


170605Z 1707/1716 VRB02KT 5000 BR FEW320
BECMG 1707/1709 22005KT 9999 FEW020



MetMap, La meteo Aeronautica in un colpo d'occhio ! - Copyright ORBIFLY Dicembre 2007 - Disclaimer

ORBIFLY MET'MAP TEAM :

Programmazione e sviluppo : Alexandra Zaïnal
Concezione : Baudouin d'Aumeries
Aiuto per la programmazione : Marc-Olivier Méhu
Supporto tecnico e logistico : Manuel Goepfert
Aiuto per la traduzione : Arnaldo La Scala

Contatto : metmap@orbifly.com




FONTI E CREDITI :

   NOAA